createdAt,value
2018-04-26T00:01:16.264Z,95181
2018-04-26T00:03:47.039Z,95186
2018-04-26T00:06:17.761Z,95188
2018-04-26T00:08:48.407Z,95180
2018-04-26T00:11:19.076Z,95172
2018-04-26T00:13:49.809Z,95180
2018-04-26T00:16:20.529Z,95183
2018-04-26T00:18:51.149Z,95183
2018-04-26T00:21:21.918Z,95185
2018-04-26T00:23:52.555Z,95179
2018-04-26T00:26:23.120Z,95189
2018-04-26T00:28:54.051Z,95191
2018-04-26T00:31:24.746Z,95180
2018-04-26T00:33:55.581Z,95184
2018-04-26T00:36:26.314Z,95173
2018-04-26T00:38:56.966Z,95162
2018-04-26T00:41:27.495Z,95162
2018-04-26T00:43:58.210Z,95166
2018-04-26T00:46:28.826Z,95170
2018-04-26T00:48:59.448Z,95182
2018-04-26T00:51:38.648Z,95177
2018-04-26T00:54:09.769Z,95160
2018-04-26T00:56:40.385Z,95166
2018-04-26T00:59:11.185Z,95161
2018-04-26T01:01:42.083Z,95160
2018-04-26T01:04:12.750Z,95166
2018-04-26T01:06:43.347Z,95160
2018-04-26T01:09:14.001Z,95170
2018-04-26T01:11:45.215Z,95170
2018-04-26T01:14:16.123Z,95154
2018-04-26T01:16:46.841Z,95165
2018-04-26T01:19:17.571Z,95164
2018-04-26T01:21:48.476Z,95165
2018-04-26T01:24:19.157Z,95163
2018-04-26T01:26:49.914Z,95165
2018-04-26T01:29:20.436Z,95163
2018-04-26T01:31:51.116Z,95154
2018-04-26T01:34:21.753Z,95148
2018-04-26T01:38:00.667Z,95145
2018-04-26T01:40:31.355Z,95142
2018-04-26T01:43:02.076Z,95152
2018-04-26T01:45:32.799Z,95141
2018-04-26T01:48:03.440Z,95144
2018-04-26T01:50:34.283Z,95153
2018-04-26T01:53:04.843Z,95152
2018-04-26T01:55:35.549Z,95149
2018-04-26T01:58:06.141Z,95148
2018-04-26T02:00:36.850Z,95149
2018-04-26T02:03:07.364Z,95145
2018-04-26T02:05:37.982Z,95154
2018-04-26T02:08:08.742Z,95151
2018-04-26T02:10:39.426Z,95155
2018-04-26T02:13:10.050Z,95156
2018-04-26T02:15:40.658Z,95165
2018-04-26T02:18:11.333Z,95166
2018-04-26T02:20:42.330Z,95175
2018-04-26T02:23:13.203Z,95171
2018-04-26T02:25:43.870Z,95165
2018-04-26T02:28:14.559Z,95162
2018-04-26T02:30:45.176Z,95150
2018-04-26T02:33:15.794Z,95164
2018-04-26T02:35:46.534Z,95165
2018-04-26T02:38:17.296Z,95165
2018-04-26T02:40:47.836Z,95158
2018-04-26T02:43:18.497Z,95158
2018-04-26T02:45:49.051Z,95164
2018-04-26T02:48:19.725Z,95163
2018-04-26T02:50:50.300Z,95163
2018-04-26T02:53:20.924Z,95166
2018-04-26T02:55:51.530Z,95164
2018-04-26T02:58:22.246Z,95163
2018-04-26T03:00:52.864Z,95171
2018-04-26T03:03:23.491Z,95160
2018-04-26T03:05:54.193Z,95168
2018-04-26T03:08:24.853Z,95167
2018-04-26T03:10:55.524Z,95168
2018-04-26T03:13:26.280Z,95180
2018-04-26T03:15:57.389Z,95181
2018-04-26T03:18:28.018Z,95173
2018-04-26T03:20:58.703Z,95172
2018-04-26T03:23:29.355Z,95190
2018-04-26T03:25:59.984Z,95177
2018-04-26T03:28:30.705Z,95171
2018-04-26T03:31:01.464Z,95171
2018-04-26T03:33:32.132Z,95169
2018-04-26T03:36:02.875Z,95172
2018-04-26T03:38:33.543Z,95179
2018-04-26T03:41:04.265Z,95185
2018-04-26T03:43:34.798Z,95184
2018-04-26T03:46:05.780Z,95178
2018-04-26T03:48:36.597Z,95178
2018-04-26T03:51:07.269Z,95189
2018-04-26T03:53:37.912Z,95195
2018-04-26T03:56:09.074Z,95198
2018-04-26T03:58:39.617Z,95182
2018-04-26T04:03:26.223Z,95193
2018-04-26T04:06:01.429Z,95206
2018-04-26T04:08:32.192Z,95216
2018-04-26T04:11:02.989Z,95221
2018-04-26T04:13:33.604Z,95221
2018-04-26T04:16:04.252Z,95208
2018-04-26T04:18:35.080Z,95229
2018-04-26T04:21:05.886Z,95224
2018-04-26T04:23:36.439Z,95233
2018-04-26T04:26:06.972Z,95232
2018-04-26T04:28:37.564Z,95241
2018-04-26T04:31:08.202Z,95256
2018-04-26T04:33:38.859Z,95243
2018-04-26T04:36:09.567Z,95247
2018-04-26T04:38:40.224Z,95248
2018-04-26T04:41:10.789Z,95253
2018-04-26T04:43:41.457Z,95247
2018-04-26T04:46:12.525Z,95258
2018-04-26T04:48:43.185Z,95264
2018-04-26T04:51:13.767Z,95265
2018-04-26T04:53:45.016Z,95266
2018-04-26T04:56:15.588Z,95272
2018-04-26T04:58:46.277Z,95274
2018-04-26T05:01:16.976Z,95272
2018-04-26T05:03:47.972Z,95273
2018-04-26T05:06:18.851Z,95268
2018-04-26T05:08:49.746Z,95266
2018-04-26T05:11:20.571Z,95278
2018-04-26T05:13:51.501Z,95278
2018-04-26T05:16:22.112Z,95286
2018-04-26T05:18:52.686Z,95282
2018-04-26T05:21:23.275Z,95286
2018-04-26T05:23:53.898Z,95286
2018-04-26T05:26:24.933Z,95293
2018-04-26T05:28:55.678Z,95294
2018-04-26T05:31:26.393Z,95297
2018-04-26T05:33:57.045Z,95306
2018-04-26T05:36:27.576Z,95311
2018-04-26T05:38:58.394Z,95307
2018-04-26T05:41:29.071Z,95311
2018-04-26T05:44:00.324Z,95308
2018-04-26T05:46:30.984Z,95313
2018-04-26T05:49:01.677Z,95317
2018-04-26T05:51:32.416Z,95315
2018-04-26T05:54:03.092Z,95326
2018-04-26T05:56:33.619Z,95331
2018-04-26T05:59:04.380Z,95332
2018-04-26T06:01:35.004Z,95330
2018-04-26T06:04:06.116Z,95330
2018-04-26T06:06:36.869Z,95335
2018-04-26T06:09:08.388Z,95342
2018-04-26T06:11:39.340Z,95339
2018-04-26T06:14:10.093Z,95342
2018-04-26T06:16:41.004Z,95350
2018-04-26T06:19:11.643Z,95340
2018-04-26T06:21:42.291Z,95341
2018-04-26T06:24:12.972Z,95339
2018-04-26T06:26:43.605Z,95339
2018-04-26T06:29:14.191Z,95342
2018-04-26T06:31:44.869Z,95355
2018-04-26T06:34:15.465Z,95353
2018-04-26T06:36:46.088Z,95355
2018-04-26T06:39:17.286Z,95356
2018-04-26T06:41:47.929Z,95354
2018-04-26T06:44:18.571Z,95355
2018-04-26T06:46:49.432Z,95355
2018-04-26T06:49:20.104Z,95354
2018-04-26T06:51:50.687Z,95357
2018-04-26T06:54:21.288Z,95355
2018-04-26T06:56:51.924Z,95353
2018-04-26T06:59:22.454Z,95354
2018-04-26T07:01:53.017Z,95352
2018-04-26T07:04:23.767Z,95351
2018-04-26T07:06:54.289Z,95361
2018-04-26T07:09:24.842Z,95339
2018-04-26T07:11:55.792Z,95345
2018-04-26T07:14:26.435Z,95332
2018-04-26T07:16:57.088Z,95354
2018-04-26T07:19:27.748Z,95338
2018-04-26T07:21:58.329Z,95345
2018-04-26T07:24:29.047Z,95326
2018-04-26T07:26:59.677Z,95330
2018-04-26T07:29:30.431Z,95337
2018-04-26T07:32:00.996Z,95335
2018-04-26T07:34:31.731Z,95347
2018-04-26T07:37:02.425Z,95336
2018-04-26T07:39:33.243Z,95341
2018-04-26T07:42:03.822Z,95345
2018-04-26T07:44:34.474Z,95353
2018-04-26T07:47:05.106Z,95332
2018-04-26T07:49:36.267Z,95334
2018-04-26T07:52:07.067Z,95343
2018-04-26T07:54:37.593Z,95344
2018-04-26T07:57:08.183Z,95350
2018-04-26T07:59:39.101Z,95353
2018-04-26T08:02:09.821Z,95372
2018-04-26T08:04:40.407Z,95372
2018-04-26T08:07:10.964Z,95382
2018-04-26T08:09:41.501Z,95379
2018-04-26T08:12:12.248Z,95388
2018-04-26T08:14:43.014Z,95394
2018-04-26T08:17:13.711Z,95390
2018-04-26T08:19:44.314Z,95404
2018-04-26T08:22:14.978Z,95413
2018-04-26T08:24:45.661Z,95396
2018-04-26T08:27:16.325Z,95423
2018-04-26T08:29:46.993Z,95420
2018-04-26T08:32:17.729Z,95421
2018-04-26T08:34:48.306Z,95448
2018-04-26T08:37:19.182Z,95430
2018-04-26T08:39:49.965Z,95447
2018-04-26T08:42:20.643Z,95447
2018-04-26T08:44:51.253Z,95451
2018-04-26T08:47:21.940Z,95452
2018-04-26T08:49:52.676Z,95447
2018-04-26T08:52:23.522Z,95452
2018-04-26T08:54:54.238Z,95458
2018-04-26T08:57:25.050Z,95458
2018-04-26T08:59:55.625Z,95461
2018-04-26T09:02:26.427Z,95456
2018-04-26T09:04:57.145Z,95460
2018-04-26T09:07:27.858Z,95455
2018-04-26T09:09:58.469Z,95455
2018-04-26T09:12:29.376Z,95459
2018-04-26T09:14:59.976Z,95462
2018-04-26T09:17:30.667Z,95454
2018-04-26T09:20:01.366Z,95456
2018-04-26T09:22:31.997Z,95462
2018-04-26T09:25:02.835Z,95461
2018-04-26T09:27:33.584Z,95454
2018-04-26T09:30:04.207Z,95461
2018-04-26T09:32:34.869Z,95453
2018-04-26T09:35:05.601Z,95454
2018-04-26T09:37:36.298Z,95438
2018-04-26T09:40:07.092Z,95444
2018-04-26T09:42:37.855Z,95451
2018-04-26T09:45:08.595Z,95457
2018-04-26T09:47:39.284Z,95447
2018-04-26T09:50:10.035Z,95443
2018-04-26T09:52:40.840Z,95437
2018-04-26T09:55:11.449Z,95440
2018-04-26T09:57:41.991Z,95439
2018-04-26T10:00:16.731Z,95430
2018-04-26T10:02:47.664Z,95423
2018-04-26T10:05:18.996Z,95428
2018-04-26T10:07:49.708Z,95422
2018-04-26T10:10:20.580Z,95443
2018-04-26T10:12:51.242Z,95419
2018-04-26T10:15:21.809Z,95432
2018-04-26T10:17:52.715Z,95419
2018-04-26T10:20:23.444Z,95411
2018-04-26T10:22:54.119Z,95422
2018-04-26T10:25:24.722Z,95424
2018-04-26T10:27:55.280Z,95417
2018-04-26T10:30:25.844Z,95429
2018-04-26T10:32:56.466Z,95419
2018-04-26T10:35:28.289Z,95443
2018-04-26T10:37:58.994Z,95442
2018-04-26T10:40:29.649Z,95449
2018-04-26T10:43:01.334Z,95449
2018-04-26T10:45:32.083Z,95449
2018-04-26T10:48:02.681Z,95442
2018-04-26T10:50:33.580Z,95445
2018-04-26T10:53:04.190Z,95420
2018-04-26T10:55:35.189Z,95418
2018-04-26T10:58:05.783Z,95426
2018-04-26T11:00:40.369Z,95436
2018-04-26T11:03:13.126Z,95435
2018-04-26T11:05:43.893Z,95419
2018-04-26T11:08:14.846Z,95426
2018-04-26T11:10:46.396Z,95416
2018-04-26T11:13:17.023Z,95423
2018-04-26T11:15:47.861Z,95423
2018-04-26T11:18:18.788Z,95426
2018-04-26T11:20:49.836Z,95423
2018-04-26T11:23:21.020Z,95434
2018-04-26T11:25:51.828Z,95432
2018-04-26T11:28:22.483Z,95425
2018-04-26T11:30:53.686Z,95430
2018-04-26T11:33:24.315Z,95415
2018-04-26T11:35:55.415Z,95419
2018-04-26T11:38:26.223Z,95425
2018-04-26T11:40:57.497Z,95423
2018-04-26T11:43:28.195Z,95414
2018-04-26T11:45:58.937Z,95418
2018-04-26T11:48:29.568Z,95412
2018-04-26T11:51:00.391Z,95420
2018-04-26T11:53:31.206Z,95399
2018-04-26T11:56:01.985Z,95409
2018-04-26T11:58:32.759Z,95418
2018-04-26T12:01:03.364Z,95420
2018-04-26T12:03:34.140Z,95419
2018-04-26T12:06:05.033Z,95441
2018-04-26T12:08:35.694Z,95428
2018-04-26T12:11:07.359Z,95419
2018-04-26T12:13:38.032Z,95431
2018-04-26T12:16:09.173Z,95429
2018-04-26T12:18:40.152Z,95423
2018-04-26T12:21:11.018Z,95411
2018-04-26T12:23:41.649Z,95422
2018-04-26T12:26:12.468Z,95420
2018-04-26T12:28:44.106Z,95430
2018-04-26T12:31:14.811Z,95433
2018-04-26T12:33:45.627Z,95432
2018-04-26T12:36:16.246Z,95439
2018-04-26T12:38:46.911Z,95441
2018-04-26T12:41:17.580Z,95429
2018-04-26T12:43:48.414Z,95438
2018-04-26T12:46:19.427Z,95439
2018-04-26T12:48:50.087Z,95448
2018-04-26T12:51:20.835Z,95442
2018-04-26T12:53:51.444Z,95443
2018-04-26T12:56:22.159Z,95434
2018-04-26T12:58:52.983Z,95443
2018-04-26T13:01:23.730Z,95434
2018-04-26T13:03:54.412Z,95438
2018-04-26T13:06:25.209Z,95440
2018-04-26T13:08:55.855Z,95432
2018-04-26T13:11:26.658Z,95424
2018-04-26T13:14:03.287Z,95413
2018-04-26T13:16:37.722Z,95419
2018-04-26T13:19:08.529Z,95412
2018-04-26T13:21:39.312Z,95430
2018-04-26T13:24:09.933Z,95431
2018-04-26T13:26:40.651Z,95437
2018-04-26T13:29:11.285Z,95440
2018-04-26T13:31:42.054Z,95431
2018-04-26T13:34:12.684Z,95428
2018-04-26T13:36:43.488Z,95433
2018-04-26T13:39:14.313Z,95423
2018-04-26T13:41:45.146Z,95412
2018-04-26T13:44:15.774Z,95416
2018-04-26T13:46:51.109Z,95424
2018-04-26T13:49:24.296Z,95435
2018-04-26T13:51:56.571Z,95436
2018-04-26T13:54:27.795Z,95439
2018-04-26T13:56:58.707Z,95439
2018-04-26T13:59:29.288Z,95437
2018-04-26T14:02:00.203Z,95440
2018-04-26T14:04:30.933Z,95425
2018-04-26T14:07:01.665Z,95429
2018-04-26T14:09:32.525Z,95429
2018-04-26T14:12:03.557Z,95415
2018-04-26T14:14:34.288Z,95423
2018-04-26T14:17:05.948Z,95433
2018-04-26T14:19:37.049Z,95429
2018-04-26T14:22:07.670Z,95431
2018-04-26T14:24:38.360Z,95429
2018-04-26T14:27:09.035Z,95436
2018-04-26T14:29:39.995Z,95428
2018-04-26T14:32:10.624Z,95432
2018-04-26T14:34:41.266Z,95422
2018-04-26T14:37:12.093Z,95420
2018-04-26T14:39:43.068Z,95415
2018-04-26T14:42:13.600Z,95417
2018-04-26T14:44:44.303Z,95417
2018-04-26T14:47:15.270Z,95411
2018-04-26T14:49:46.386Z,95414
2018-04-26T14:52:17.055Z,95419
2018-04-26T14:54:47.668Z,95413
2018-04-26T14:57:18.453Z,95414
2018-04-26T14:59:49.223Z,95412
2018-04-26T15:02:19.964Z,95428
2018-04-26T15:04:52.347Z,95427
2018-04-26T15:07:23.006Z,95425
2018-04-26T15:09:54.240Z,95432
2018-04-26T15:12:25.096Z,95426
2018-04-26T15:14:55.797Z,95428
2018-04-26T15:17:27.398Z,95425
2018-04-26T15:19:58.318Z,95429
2018-04-26T15:22:29.164Z,95420
2018-04-26T15:24:59.962Z,95422
2018-04-26T15:27:30.811Z,95423
2018-04-26T15:30:01.405Z,95416
2018-04-26T15:32:32.288Z,95427
2018-04-26T15:35:03.325Z,95407
2018-04-26T15:37:34.315Z,95409
2018-04-26T15:40:04.906Z,95423
2018-04-26T15:42:35.481Z,95438
2018-04-26T15:45:06.157Z,95424
2018-04-26T15:47:36.793Z,95429
2018-04-26T15:50:07.999Z,95441
2018-04-26T15:52:51.541Z,95432
2018-04-26T15:56:35.879Z,95439
2018-04-26T16:00:18.968Z,95443
2018-04-26T16:04:01.324Z,95440
2018-04-26T16:06:42.674Z,95442
2018-04-26T16:09:55.483Z,95440
2018-04-26T16:15:52.586Z,95436
2018-04-26T16:18:59.818Z,95441
2018-04-26T16:22:47.741Z,95444
2018-04-26T16:25:29.088Z,95446
2018-04-26T16:28:12.062Z,95449
2018-04-26T16:30:57.650Z,95447
2018-04-26T16:33:47.207Z,95448
2018-04-26T16:36:27.526Z,95443
2018-04-26T16:39:04.199Z,95443
2018-04-26T16:41:35.384Z,95448
2018-04-26T16:44:05.913Z,95449
2018-04-26T16:46:36.544Z,95449
2018-04-26T16:49:07.489Z,95453
2018-04-26T16:51:38.273Z,95450
2018-04-26T16:54:08.915Z,95453
2018-04-26T16:56:39.653Z,95466
2018-04-26T16:59:10.177Z,95455
2018-04-26T17:01:40.938Z,95461
2018-04-26T17:04:11.726Z,95468
2018-04-26T17:06:42.411Z,95466
2018-04-26T17:09:13.163Z,95471
2018-04-26T17:11:43.732Z,95469
2018-04-26T17:14:14.443Z,95473
2018-04-26T17:16:45.214Z,95482
2018-04-26T17:19:15.945Z,95479
2018-04-26T17:21:46.824Z,95483
2018-04-26T17:24:17.706Z,95478
2018-04-26T17:26:48.423Z,95477
2018-04-26T17:29:19.281Z,95479
2018-04-26T17:31:50.183Z,95478
2018-04-26T17:34:20.822Z,95480
2018-04-26T17:36:51.592Z,95474
2018-04-26T17:39:22.388Z,95477
2018-04-26T17:41:53.231Z,95481
2018-04-26T17:44:23.801Z,95478
2018-04-26T17:46:54.567Z,95480
2018-04-26T17:49:25.260Z,95480
2018-04-26T17:51:55.963Z,95486
2018-04-26T17:54:26.815Z,95486
2018-04-26T17:56:57.546Z,95497
2018-04-26T17:59:29.079Z,95497
2018-04-26T18:01:59.692Z,95506
2018-04-26T18:04:31.399Z,95512
2018-04-26T18:07:01.977Z,95505
2018-04-26T18:09:32.725Z,95510
2018-04-26T18:12:03.461Z,95515
2018-04-26T18:14:34.172Z,95516
2018-04-26T18:17:05.124Z,95522
2018-04-26T18:19:35.945Z,95521
2018-04-26T18:22:06.668Z,95519
2018-04-26T18:24:37.260Z,95516
2018-04-26T18:27:08.084Z,95522
2018-04-26T18:29:38.606Z,95525
2018-04-26T18:32:09.278Z,95529
2018-04-26T18:34:39.898Z,95525
2018-04-26T18:37:10.724Z,95530
2018-04-26T18:39:41.423Z,95532
2018-04-26T18:42:12.138Z,95535
2018-04-26T18:44:43.242Z,95542
2018-04-26T18:47:14.071Z,95541
2018-04-26T18:49:44.758Z,95547
2018-04-26T18:52:15.595Z,95551
2018-04-26T18:54:46.329Z,95560
2018-04-26T18:57:17.109Z,95556
2018-04-26T18:59:48.047Z,95562
2018-04-26T19:02:18.947Z,95562
2018-04-26T19:04:49.673Z,95567
2018-04-26T19:07:20.447Z,95571
2018-04-26T19:09:51.966Z,95574
2018-04-26T19:12:22.671Z,95576
2018-04-26T19:14:53.874Z,95572
2018-04-26T19:17:24.483Z,95582
2018-04-26T19:19:55.366Z,95583
2018-04-26T19:22:26.315Z,95590
2018-04-26T19:24:57.162Z,95597
2018-04-26T19:27:28.078Z,95602
2018-04-26T19:29:58.665Z,95607
2018-04-26T19:32:29.439Z,95608
2018-04-26T19:35:00.629Z,95607
2018-04-26T19:37:31.499Z,95618
2018-04-26T19:40:02.232Z,95615
2018-04-26T19:42:33.047Z,95615
2018-04-26T19:45:03.944Z,95608
2018-04-26T19:51:03.746Z,95608
2018-04-26T19:56:38.296Z,95616
2018-04-26T19:59:08.860Z,95614
2018-04-26T20:01:39.678Z,95619
2018-04-26T20:04:10.328Z,95615
2018-04-26T20:06:41.451Z,95622
2018-04-26T20:09:12.459Z,95627
2018-04-26T20:11:43.172Z,95627
2018-04-26T20:14:13.747Z,95619
2018-04-26T20:16:44.297Z,95621
2018-04-26T20:19:15.139Z,95620
2018-04-26T20:21:45.709Z,95620
2018-04-26T20:24:16.397Z,95618
2018-04-26T20:26:49.424Z,95616
2018-04-26T20:29:20.447Z,95613
2018-04-26T20:31:51.055Z,95615
2018-04-26T20:34:22.492Z,95619
2018-04-26T20:36:53.113Z,95617
2018-04-26T20:39:23.815Z,95615
2018-04-26T20:41:56.649Z,95622
2018-04-26T20:44:52.041Z,95628
2018-04-26T20:47:22.707Z,95629
2018-04-26T20:49:53.265Z,95633
2018-04-26T20:52:23.888Z,95634
2018-04-26T20:54:54.597Z,95633
2018-04-26T20:57:25.423Z,95633
2018-04-26T20:59:56.115Z,95631
2018-04-26T21:02:26.886Z,95629
2018-04-26T21:04:57.577Z,95633
2018-04-26T21:07:28.125Z,95630
2018-04-26T21:09:59.016Z,95631
2018-04-26T21:12:29.641Z,95631
2018-04-26T21:15:00.212Z,95631
2018-04-26T21:17:30.688Z,95624
2018-04-26T21:20:02.040Z,95623
2018-04-26T21:22:32.810Z,95627
2018-04-26T21:25:03.511Z,95630
2018-04-26T21:27:34.155Z,95631
2018-04-26T21:30:04.832Z,95633
2018-04-26T21:32:35.401Z,95638
2018-04-26T21:35:05.948Z,95632
2018-04-26T21:37:36.847Z,95633
2018-04-26T21:40:07.740Z,95627
2018-04-26T21:42:38.430Z,95631
2018-04-26T21:45:08.928Z,95627
2018-04-26T21:47:39.650Z,95626
2018-04-26T21:50:15.400Z,95636
2018-04-26T21:52:51.213Z,95637
2018-04-26T21:55:27.563Z,95635
2018-04-26T21:58:03.410Z,95636
2018-04-26T22:00:39.177Z,95629
2018-04-26T22:03:09.995Z,95627
2018-04-26T22:05:40.784Z,95618
2018-04-26T22:08:11.536Z,95622
2018-04-26T22:10:42.202Z,95623
2018-04-26T22:13:12.793Z,95617
2018-04-26T22:15:43.420Z,95618
2018-04-26T22:18:13.988Z,95620
2018-04-26T22:20:44.552Z,95615
2018-04-26T22:23:15.143Z,95622
2018-04-26T22:25:45.827Z,95623
2018-04-26T22:28:16.483Z,95621
2018-04-26T22:30:46.953Z,95622
2018-04-26T22:33:17.440Z,95621
2018-04-26T22:35:48.028Z,95617
2018-04-26T22:38:18.687Z,95620
2018-04-26T22:40:49.348Z,95619
2018-04-26T22:43:20.031Z,95618
2018-04-26T22:45:50.735Z,95620
2018-04-26T22:48:21.709Z,95619
2018-04-26T22:50:52.315Z,95616
2018-04-26T22:53:22.842Z,95621
2018-04-26T22:55:53.415Z,95621
2018-04-26T22:58:23.993Z,95619
2018-04-26T23:00:54.615Z,95619
2018-04-26T23:03:25.252Z,95619
2018-04-26T23:05:55.915Z,95619
2018-04-26T23:08:26.591Z,95618
2018-04-26T23:10:57.160Z,95613
2018-04-26T23:13:27.951Z,95617
2018-04-26T23:15:59.167Z,95619
2018-04-26T23:18:29.920Z,95616
2018-04-26T23:21:00.579Z,95615
2018-04-26T23:23:31.514Z,95612
2018-04-26T23:26:02.227Z,95611
2018-04-26T23:28:33.044Z,95606
2018-04-26T23:31:03.781Z,95606
2018-04-26T23:33:34.479Z,95607
2018-04-26T23:36:05.137Z,95602
2018-04-26T23:38:35.728Z,95601
2018-04-26T23:41:06.353Z,95605
2018-04-26T23:43:36.972Z,95601
2018-04-26T23:46:07.616Z,95608
2018-04-26T23:48:38.217Z,95610
2018-04-26T23:51:08.903Z,95600
2018-04-26T23:53:39.425Z,95600
2018-04-26T23:56:10.144Z,95595
2018-04-26T23:58:40.939Z,95599
